AirNav   Air Wisconsin Up To $57,000 Bonus
 
 1646 users online  

PAAN Gold King Creek Airport
Fairbanks, Alaska, USA

GOING TO FAIRBANKS?


FAA INFORMATION EFFECTIVE 22 APRIL 2021

Location

FAA Identifier: AK7
Lat/Long: 64-11-53.0000N 147-55-43.0000W
64-11.883333N 147-55.716667W
64.1980556,-147.9286111
(estimated)
Elevation: 1720 ft. / 524 m (estimated)
Variation: 25E (1965)
From city: 39 miles SE of FAIRBANKS, AK
Time zone: UTC -8 (UTC -9 during Standard Time)
Zip code: 99743

Airport Operations

Airport use: Open to the public
Activation date: 02/2001
Control tower: no
ARTCC: ANCHORAGE CENTER
FSS: FAIRBANKS FLIGHT SERVICE STATION [907-474-0788]
NOTAMs facility: FAI (NOTAM-D service available)
Attendance: UNATNDD
Wind indicator: yes
Segmented circle: no

Airport Communications

CTAF: 122.9

Nearby radio navigation aids

VOR radial/distance  VOR name  Freq  Var
FAIr156/36.2FAIRBANKS VORTAC108.6021E
ENNr107/37.9NENANA VORTAC115.8021E

 
NDB name  Hdg/Dist  Freq  Var  ID
ICE POOL107/36.452518EICW .. -.-. .--

Airport Services

Runway Information

Runway 9/27

Dimensions: 2558 x 17 ft. / 780 x 5 m
Surface: gravel/dirt, in fair condition
ROCKS UP TO 6 INCHES ON RY SFC.
RUNWAY 9  RUNWAY 27
Latitude: 64-11.993708N64-11.772323N
Longitude: 147-56.125273W147-55.307022W
Traffic pattern: leftleft
Runway heading: 097 magnetic, 122 true277 magnetic, 302 true
Obstructions: 38 ft. trees, 110 ft. right of centerline15 ft. brush, 69 ft. left and right of centerline

Airport Ownership and Management from official FAA records

Ownership: Publicly-owned
Owner: ALASKA DOT&PF NORTHERN REGION
2301 PEGER ROAD
FAIRBANKS, AK 99709
Phone 907-451-2200
Manager: TOM WILLIAMS
2301 PEGER ROAD
FAIRBANKS, AK 99709
Phone (907) 451-5280

Airport Operational Statistics

Aircraft based on the field: 1
Single engine airplanes: 1
    
Aircraft operations: 50/year *
100% local general aviation
* for 12-month period ending 31 December 2019

Additional Remarks

RY CONDITION NOT MONITORED; RECOMMEND VISUAL INSP PRIOR TO LANDING.
NO SVCS AVBL.
20 FT TREES ON BOTH SIDES OF RWY WITHIN 60-70 FT OF CENTERLINE.

Instrument Procedures

There are no published instrument procedures at PAAN.

Some nearby airports with instrument procedures:

PAHV - Healy River Airport (34 nm SW)
PAEI - Eielson Air Force Base (35 nm NE)
PANN - Nenana Municipal Airport (36 nm NW)
PAFA - Fairbanks International Airport (37 nm N)
PAFB - Ladd Army Airfield (39 nm N)
 
Loc | Ops | Rwys | IFR | FBO | Links
Com | Nav | Svcs | Stats | Notes

Crowley
 
Area around PAAN (Gold King Creek Airport)
 
Road maps at: MapQuest Bing Google
 
Aerial photo
WARNING: Photo may not be current or correct
Aerial photo of PAAN (Gold King Creek Airport)
Photo taken 18-Feb-2012
looking west.

Do you have a better or more recent aerial photo of Gold King Creek Airport that you would like to share? If so, please send us your photo.

 
Sectional chart

 
Airport distance calculator
Flying to Gold King Creek Airport? Find the distance to fly.

From to PAAN

Sunrise and sunset
Times for 17-May-2021
 Local
(UTC-8)
 Zulu
(UTC)
Morning civil twilight02:3110:31
Sunrise04:3012:30
Sunset23:0707:07
Evening civil twilight01:0509:05

Current date and time
Zulu (UTC)  17-May-2021 15:53:06
Local (UTC-8)  17-May-2021 07:53:06
 
METAR
PAEI 
35nm NE 
171526Z 00000KT 10SM OVC065 07/05 A2988 RMK AO2A SLP124
PANN 
37nm NW 
171453Z AUTO 00000KT 10SM FEW080 BKN110 06/04 A2986 RMK AO2 RAB15E24 SLP118 P0000 60000 T00610039 53005 TSNO
PAFA 
37nm N 
171453Z 00000KT 10SM FEW012 BKN100 BKN200 07/04 A2986 RMK AO2 SLP118 T00670044 51007
PAIN 
38nm SW 
171456Z AUTO 00000KT 10SM OVC045 04/03 A2989 RMK AO2 SLP143 60001 T00440033 53006
PAFB 
39nm N 
171458Z 00000KT 10SM OVC095 07/06 A2987 RMK AO2A SLP119 T00660056 52007
TAF
PAEI 
35nm NE 
170600Z 1706/1812 VRB06KT 8000 -SHRA SCT030 SCT040 OVC070 610508 QNH2977INS BECMG 1710/1711 25006KT 9999 VCSH FEW020 SCT030 BKN050 610508 QNH2980INS BECMG 1716/1717 25006KT 9999 VCSH FEW025 SCT050 BKN080 610804 QNH2986INS BECMG 1721/1722 24010KT 9999 VCTS SCT025CB BKN045 QNH2984INS BECMG 1802/1803 VRB06KT 9999 NSW BKN045 610654 QNH2986INS TX13/1800Z TN04/1714Z
PAFA 
37nm N 
170520Z 1706/1812 VRB06KT P6SM -SHRA SCT045 BKN050 BKN120 FM170800 19002KT P6SM BKN100 FM172000 23004KT P6SM -SHRA SCT045 BKN050 BKN120
NOTAMs
Click for the latest NOTAMs
NOTAMs are issued by the DoD/FAA and will open in a separate window not controlled by AirNav.

 

 
 

Would you like to see your business listed on this page?

 If your business provides an interesting product or service to pilots, flight crews, aircraft, or users of the Gold King Creek Airport, you should consider listing it here.  To start the listing process, click on the button below
 
Add a business
 

Other Pages about Gold King Creek Airport

Update a link
 
Copyright © AirNav, LLC. All rights reserved. Privacy Policy  Contact